sensor_id;sensor_type;location;lat;lon;timestamp;temperature;humidity
44627;DHT22;30333;52.192;8.834;2022-10-26T00:01:03;11.50;99.90
44627;DHT22;30333;52.192;8.834;2022-10-26T00:03:32;10.40;99.90
44627;DHT22;30333;52.192;8.834;2022-10-26T00:06:05;10.30;99.90
44627;DHT22;30333;52.192;8.834;2022-10-26T00:08:32;10.30;99.90
44627;DHT22;30333;52.192;8.834;2022-10-26T00:10:59;10.30;99.90
44627;DHT22;30333;52.192;8.834;2022-10-26T00:13:26;10.20;99.90
44627;DHT22;30333;52.192;8.834;2022-10-26T00:15:53;10.30;99.90
44627;DHT22;30333;52.192;8.834;2022-10-26T00:18:22;10.30;99.90
44627;DHT22;30333;52.192;8.834;2022-10-26T00:20:50;10.20;99.90
44627;DHT22;30333;52.192;8.834;2022-10-26T00:23:17;10.20;99.90
44627;DHT22;30333;52.192;8.834;2022-10-26T00:25:44;10.20;99.90
44627;DHT22;30333;52.192;8.834;2022-10-26T00:28:19;11.00;99.90
44627;DHT22;30333;52.192;8.834;2022-10-26T00:33:13;10.00;99.90
44627;DHT22;30333;52.192;8.834;2022-10-26T00:35:41;9.80;99.90
44627;DHT22;30333;52.192;8.834;2022-10-26T00:43:13;9.80;99.90
44627;DHT22;30333;52.192;8.834;2022-10-26T00:45:40;9.80;99.90
44627;DHT22;30333;52.192;8.834;2022-10-26T00:48:16;9.80;99.90
44627;DHT22;30333;52.192;8.834;2022-10-26T00:50:48;10.70;99.90
44627;DHT22;30333;52.192;8.834;2022-10-26T00:55:46;9.70;99.90
44627;DHT22;30333;52.192;8.834;2022-10-26T00:58:14;10.10;99.90
44627;DHT22;30333;52.192;8.834;2022-10-26T01:00:42;9.70;99.90
44627;DHT22;30333;52.192;8.834;2022-10-26T01:05:40;9.70;99.90
44627;DHT22;30333;52.192;8.834;2022-10-26T01:08:09;9.70;99.90
44627;DHT22;30333;52.192;8.834;2022-10-26T01:10:38;9.70;99.90
44627;DHT22;30333;52.192;8.834;2022-10-26T01:13:05;9.70;99.90
44627;DHT22;30333;52.192;8.834;2022-10-26T01:15:38;9.60;99.90
44627;DHT22;30333;52.192;8.834;2022-10-26T01:18:10;9.70;99.90
44627;DHT22;30333;52.192;8.834;2022-10-26T01:23:56;9.70;99.90
44627;DHT22;30333;52.192;8.834;2022-10-26T01:26:44;9.70;99.90
44627;DHT22;30333;52.192;8.834;2022-10-26T01:29:35;11.00;99.90
44627;DHT22;30333;52.192;8.834;2022-10-26T01:32:11;9.70;99.90
44627;DHT22;30333;52.192;8.834;2022-10-26T01:34:43;9.60;99.90
44627;DHT22;30333;52.192;8.834;2022-10-26T01:37:12;9.70;99.90
44627;DHT22;30333;52.192;8.834;2022-10-26T01:39:44;9.70;99.90
44627;DHT22;30333;52.192;8.834;2022-10-26T01:42:15;9.70;99.90
44627;DHT22;30333;52.192;8.834;2022-10-26T01:44:47;11.30;99.90
44627;DHT22;30333;52.192;8.834;2022-10-26T01:47:17;9.70;99.90
44627;DHT22;30333;52.192;8.834;2022-10-26T01:49:52;9.70;99.90
44627;DHT22;30333;52.192;8.834;2022-10-26T01:54:47;9.70;99.90
44627;DHT22;30333;52.192;8.834;2022-10-26T01:57:17;9.70;99.90
44627;DHT22;30333;52.192;8.834;2022-10-26T01:59:47;9.70;99.90
44627;DHT22;30333;52.192;8.834;2022-10-26T02:02:38;9.70;99.90
44627;DHT22;30333;52.192;8.834;2022-10-26T02:05:19;9.60;99.90
44627;DHT22;30333;52.192;8.834;2022-10-26T02:07:54;9.60;99.90
44627;DHT22;30333;52.192;8.834;2022-10-26T02:10:31;9.60;99.90
44627;DHT22;30333;52.192;8.834;2022-10-26T02:13:07;9.60;99.90
44627;DHT22;30333;52.192;8.834;2022-10-26T02:15:41;9.60;99.90
44627;DHT22;30333;52.192;8.834;2022-10-26T02:18:19;10.60;99.90
44627;DHT22;30333;52.192;8.834;2022-10-26T02:20:50;9.60;99.90
44627;DHT22;30333;52.192;8.834;2022-10-26T02:23:21;10.70;99.90
44627;DHT22;30333;52.192;8.834;2022-10-26T02:25:53;9.60;99.90
44627;DHT22;30333;52.192;8.834;2022-10-26T02:28:24;10.70;99.90
44627;DHT22;30333;52.192;8.834;2022-10-26T02:30:54;9.60;99.90
44627;DHT22;30333;52.192;8.834;2022-10-26T02:33:27;9.60;99.90
44627;DHT22;30333;52.192;8.834;2022-10-26T02:35:55;9.60;99.90
44627;DHT22;30333;52.192;8.834;2022-10-26T02:38:25;10.10;99.90
44627;DHT22;30333;52.192;8.834;2022-10-26T02:40:54;9.60;99.90
44627;DHT22;30333;52.192;8.834;2022-10-26T02:43:22;10.30;99.90
44627;DHT22;30333;52.192;8.834;2022-10-26T02:45:53;9.60;99.90
44627;DHT22;30333;52.192;8.834;2022-10-26T02:48:24;9.60;99.90
44627;DHT22;30333;52.192;8.834;2022-10-26T02:50:57;9.50;99.90
44627;DHT22;30333;52.192;8.834;2022-10-26T02:53:28;9.60;99.90
44627;DHT22;30333;52.192;8.834;2022-10-26T02:55:59;9.60;99.90
44627;DHT22;30333;52.192;8.834;2022-10-26T02:58:30;11.20;99.90
44627;DHT22;30333;52.192;8.834;2022-10-26T03:00:59;9.90;99.90
44627;DHT22;30333;52.192;8.834;2022-10-26T03:03:27;9.60;99.90
44627;DHT22;30333;52.192;8.834;2022-10-26T03:08:22;9.60;99.90
44627;DHT22;30333;52.192;8.834;2022-10-26T03:18:11;9.70;99.90
44627;DHT22;30333;52.192;8.834;2022-10-26T03:20:39;9.60;99.90
44627;DHT22;30333;52.192;8.834;2022-10-26T03:23:09;9.60;99.90
44627;DHT22;30333;52.192;8.834;2022-10-26T03:25:36;9.60;99.90
44627;DHT22;30333;52.192;8.834;2022-10-26T03:28:03;11.30;99.90
44627;DHT22;30333;52.192;8.834;2022-10-26T03:32:58;10.20;99.90
44627;DHT22;30333;52.192;8.834;2022-10-26T03:37:53;9.70;99.90
44627;DHT22;30333;52.192;8.834;2022-10-26T03:45:15;9.90;99.90
44627;DHT22;30333;52.192;8.834;2022-10-26T03:47:43;10.00;99.90
44627;DHT22;30333;52.192;8.834;2022-10-26T03:52:38;10.10;99.90
44627;DHT22;30333;52.192;8.834;2022-10-26T03:55:08;10.10;99.90
44627;DHT22;30333;52.192;8.834;2022-10-26T03:57:39;10.10;99.90
44627;DHT22;30333;52.192;8.834;2022-10-26T04:00:08;10.00;99.90
44627;DHT22;30333;52.192;8.834;2022-10-26T04:05:02;10.00;99.90
44627;DHT22;30333;52.192;8.834;2022-10-26T04:07:29;10.00;99.90
44627;DHT22;30333;52.192;8.834;2022-10-26T04:12:25;10.10;99.90
44627;DHT22;30333;52.192;8.834;2022-10-26T04:17:19;10.00;99.90
44627;DHT22;30333;52.192;8.834;2022-10-26T04:19:46;10.00;99.90
44627;DHT22;30333;52.192;8.834;2022-10-26T04:27:08;9.90;99.90
44627;DHT22;30333;52.192;8.834;2022-10-26T04:29:36;9.90;99.90
44627;DHT22;30333;52.192;8.834;2022-10-26T04:32:03;9.90;99.90
44627;DHT22;30333;52.192;8.834;2022-10-26T04:34:30;9.90;99.90
44627;DHT22;30333;52.192;8.834;2022-10-26T04:36:56;10.00;99.90
44627;DHT22;30333;52.192;8.834;2022-10-26T04:41:52;9.90;99.90
44627;DHT22;30333;52.192;8.834;2022-10-26T04:46:48;9.70;99.90
44627;DHT22;30333;52.192;8.834;2022-10-26T04:54:09;9.70;99.90
44627;DHT22;30333;52.192;8.834;2022-10-26T04:59:03;9.70;99.90
44627;DHT22;30333;52.192;8.834;2022-10-26T05:01:30;9.60;99.90
44627;DHT22;30333;52.192;8.834;2022-10-26T05:03:59;9.60;99.90
44627;DHT22;30333;52.192;8.834;2022-10-26T05:06:26;9.50;99.90
44627;DHT22;30333;52.192;8.834;2022-10-26T05:11:20;9.60;99.90
44627;DHT22;30333;52.192;8.834;2022-10-26T05:21:10;9.70;99.90
44627;DHT22;30333;52.192;8.834;2022-10-26T05:23:38;9.80;99.90
44627;DHT22;30333;52.192;8.834;2022-10-26T05:26:05;10.10;99.90
44627;DHT22;30333;52.192;8.834;2022-10-26T05:33:26;9.60;99.90
44627;DHT22;30333;52.192;8.834;2022-10-26T05:38:22;9.90;99.90
44627;DHT22;30333;52.192;8.834;2022-10-26T05:43:17;10.00;99.90
44627;DHT22;30333;52.192;8.834;2022-10-26T06:31:26;9.80;99.90
44627;DHT22;30333;52.192;8.834;2022-10-26T06:33:57;9.70;99.90
44627;DHT22;30333;52.192;8.834;2022-10-26T06:36:26;9.80;99.90
44627;DHT22;30333;52.192;8.834;2022-10-26T06:38:55;9.70;99.90
44627;DHT22;30333;52.192;8.834;2022-10-26T06:41:24;9.80;99.90
44627;DHT22;30333;52.192;8.834;2022-10-26T06:43:52;9.80;99.90
44627;DHT22;30333;52.192;8.834;2022-10-26T06:46:28;9.80;99.90
44627;DHT22;30333;52.192;8.834;2022-10-26T06:49:01;9.90;99.90
44627;DHT22;30333;52.192;8.834;2022-10-26T06:51:37;11.40;99.90
44627;DHT22;30333;52.192;8.834;2022-10-26T06:54:12;9.90;99.90
44627;DHT22;30333;52.192;8.834;2022-10-26T06:56:41;9.90;99.90
44627;DHT22;30333;52.192;8.834;2022-10-26T06:59:14;11.90;99.90
44627;DHT22;30333;52.192;8.834;2022-10-26T07:01:43;10.00;99.90
44627;DHT22;30333;52.192;8.834;2022-10-26T07:06:37;10.10;99.90
44627;DHT22;30333;52.192;8.834;2022-10-26T07:09:05;10.10;99.90
44627;DHT22;30333;52.192;8.834;2022-10-26T07:11:32;11.20;99.90
44627;DHT22;30333;52.192;8.834;2022-10-26T07:13:59;10.20;99.90
44627;DHT22;30333;52.192;8.834;2022-10-26T07:16:25;10.20;99.90
44627;DHT22;30333;52.192;8.834;2022-10-26T07:18:55;10.30;99.90
44627;DHT22;30333;52.192;8.834;2022-10-26T07:23:49;10.30;99.90
44627;DHT22;30333;52.192;8.834;2022-10-26T07:26:18;10.50;99.90
44627;DHT22;30333;52.192;8.834;2022-10-26T07:28:47;10.50;99.90
44627;DHT22;30333;52.192;8.834;2022-10-26T07:31:14;10.50;99.90
44627;DHT22;30333;52.192;8.834;2022-10-26T07:33:41;10.50;99.90
44627;DHT22;30333;52.192;8.834;2022-10-26T07:36:11;12.90;99.90
44627;DHT22;30333;52.192;8.834;2022-10-26T07:41:05;10.60;99.90
44627;DHT22;30333;52.192;8.834;2022-10-26T07:43:32;10.70;99.90
44627;DHT22;30333;52.192;8.834;2022-10-26T07:45:59;11.20;99.90
44627;DHT22;30333;52.192;8.834;2022-10-26T07:50:53;10.90;99.90
44627;DHT22;30333;52.192;8.834;2022-10-26T07:53:22;11.00;99.90
44627;DHT22;30333;52.192;8.834;2022-10-26T07:58:21;11.30;99.90
44627;DHT22;30333;52.192;8.834;2022-10-26T08:00:51;11.40;99.90
44627;DHT22;30333;52.192;8.834;2022-10-26T08:10:45;11.70;99.90
44627;DHT22;30333;52.192;8.834;2022-10-26T08:13:13;11.80;99.90
44627;DHT22;30333;52.192;8.834;2022-10-26T08:20:35;12.10;99.90
44627;DHT22;30333;52.192;8.834;2022-10-26T08:23:02;12.20;99.90
44627;DHT22;30333;52.192;8.834;2022-10-26T08:25:32;12.30;99.90
44627;DHT22;30333;52.192;8.834;2022-10-26T08:28:01;12.40;99.90
44627;DHT22;30333;52.192;8.834;2022-10-26T08:32:59;12.50;99.90
44627;DHT22;30333;52.192;8.834;2022-10-26T08:35:27;12.50;99.90
44627;DHT22;30333;52.192;8.834;2022-10-26T08:40:24;12.60;99.90
44627;DHT22;30333;52.192;8.834;2022-10-26T08:42:55;13.00;99.90
44627;DHT22;30333;52.192;8.834;2022-10-26T08:45:29;12.70;99.90
44627;DHT22;30333;52.192;8.834;2022-10-26T08:48:05;12.70;99.90
44627;DHT22;30333;52.192;8.834;2022-10-26T08:50:39;12.80;99.90
44627;DHT22;30333;52.192;8.834;2022-10-26T08:53:15;12.90;99.90
44627;DHT22;30333;52.192;8.834;2022-10-26T08:55:46;13.80;99.90
44627;DHT22;30333;52.192;8.834;2022-10-26T08:58:15;13.30;99.90
44627;DHT22;30333;52.192;8.834;2022-10-26T09:00:52;13.10;99.90
44627;DHT22;30333;52.192;8.834;2022-10-26T09:06:03;13.30;99.90
44627;DHT22;30333;52.192;8.834;2022-10-26T09:08:35;13.40;99.90
44627;DHT22;30333;52.192;8.834;2022-10-26T09:11:11;13.50;99.90
44627;DHT22;30333;52.192;8.834;2022-10-26T09:13:54;13.20;99.90
44627;DHT22;30333;52.192;8.834;2022-10-26T09:16:30;13.70;99.90
44627;DHT22;30333;52.192;8.834;2022-10-26T09:19:13;13.80;99.90
44627;DHT22;30333;52.192;8.834;2022-10-26T09:21:46;13.80;99.90
44627;DHT22;30333;52.192;8.834;2022-10-26T09:24:17;13.80;99.90
44627;DHT22;30333;52.192;8.834;2022-10-26T09:26:53;13.90;99.90
44627;DHT22;30333;52.192;8.834;2022-10-26T09:29:24;16.20;99.90
44627;DHT22;30333;52.192;8.834;2022-10-26T09:31:54;14.60;99.90
44627;DHT22;30333;52.192;8.834;2022-10-26T09:34:27;14.30;99.90
44627;DHT22;30333;52.192;8.834;2022-10-26T09:39:37;14.40;99.90
44627;DHT22;30333;52.192;8.834;2022-10-26T09:42:14;14.90;99.90
44627;DHT22;30333;52.192;8.834;2022-10-26T09:44:46;14.70;99.90
44627;DHT22;30333;52.192;8.834;2022-10-26T09:47:26;14.90;99.90
44627;DHT22;30333;52.192;8.834;2022-10-26T09:49:57;14.90;99.90
44627;DHT22;30333;52.192;8.834;2022-10-26T10:02:39;15.50;99.90
44627;DHT22;30333;52.192;8.834;2022-10-26T10:05:24;15.60;99.90
44627;DHT22;30333;52.192;8.834;2022-10-26T10:08:17;15.50;99.90
44627;DHT22;30333;52.192;8.834;2022-10-26T10:10:56;15.70;99.90
44627;DHT22;30333;52.192;8.834;2022-10-26T10:13:25;15.80;99.90
44627;DHT22;30333;52.192;8.834;2022-10-26T10:15:55;15.90;99.90
44627;DHT22;30333;52.192;8.834;2022-10-26T10:18:25;15.90;99.90
44627;DHT22;30333;52.192;8.834;2022-10-26T10:20:55;15.90;99.90
44627;DHT22;30333;52.192;8.834;2022-10-26T10:23:29;15.90;99.90
44627;DHT22;30333;52.192;8.834;2022-10-26T10:25:58;15.90;99.90
44627;DHT22;30333;52.192;8.834;2022-10-26T10:28:26;16.00;99.90
44627;DHT22;30333;52.192;8.834;2022-10-26T10:30:55;16.10;99.90
44627;DHT22;30333;52.192;8.834;2022-10-26T10:33:34;16.10;99.90
44627;DHT22;30333;52.192;8.834;2022-10-26T10:38:28;16.20;99.90
44627;DHT22;30333;52.192;8.834;2022-10-26T10:40:57;16.40;99.90
44627;DHT22;30333;52.192;8.834;2022-10-26T10:43:25;16.40;99.90
44627;DHT22;30333;52.192;8.834;2022-10-26T10:45:54;16.40;99.90
44627;DHT22;30333;52.192;8.834;2022-10-26T11:02:11;16.40;99.90
44627;DHT22;30333;52.192;8.834;2022-10-26T11:04:57;16.40;99.90
44627;DHT22;30333;52.192;8.834;2022-10-26T11:07:27;16.40;99.90
44627;DHT22;30333;52.192;8.834;2022-10-26T11:09:59;16.60;99.90
44627;DHT22;30333;52.192;8.834;2022-10-26T11:12:29;16.40;99.90
44627;DHT22;30333;52.192;8.834;2022-10-26T11:15:02;16.40;99.90
44627;DHT22;30333;52.192;8.834;2022-10-26T11:17:34;16.30;99.90
44627;DHT22;30333;52.192;8.834;2022-10-26T11:20:05;16.40;99.90
44627;DHT22;30333;52.192;8.834;2022-10-26T11:22:53;16.40;99.90
44627;DHT22;30333;52.192;8.834;2022-10-26T11:25:25;16.40;99.90
44627;DHT22;30333;52.192;8.834;2022-10-26T11:27:56;16.50;99.90
44627;DHT22;30333;52.192;8.834;2022-10-26T11:30:27;17.80;99.90
44627;DHT22;30333;52.192;8.834;2022-10-26T11:33:00;16.70;99.90
44627;DHT22;30333;52.192;8.834;2022-10-26T11:35:33;16.70;99.90
44627;DHT22;30333;52.192;8.834;2022-10-26T11:38:07;16.70;99.90
44627;DHT22;30333;52.192;8.834;2022-10-26T11:40:40;16.80;99.90
44627;DHT22;30333;52.192;8.834;2022-10-26T11:43:13;16.70;99.90
44627;DHT22;30333;52.192;8.834;2022-10-26T11:45:44;16.80;99.90
44627;DHT22;30333;52.192;8.834;2022-10-26T11:48:15;16.80;99.90
44627;DHT22;30333;52.192;8.834;2022-10-26T11:50:49;16.90;99.90
44627;DHT22;30333;52.192;8.834;2022-10-26T11:53:17;16.90;99.90
44627;DHT22;30333;52.192;8.834;2022-10-26T11:55:50;17.60;99.90
44627;DHT22;30333;52.192;8.834;2022-10-26T11:58:25;17.00;99.90
44627;DHT22;30333;52.192;8.834;2022-10-26T12:00:55;16.90;99.90
44627;DHT22;30333;52.192;8.834;2022-10-26T12:03:26;17.00;99.90
44627;DHT22;30333;52.192;8.834;2022-10-26T12:05:54;16.90;99.90
44627;DHT22;30333;52.192;8.834;2022-10-26T12:08:24;17.00;99.90
44627;DHT22;30333;52.192;8.834;2022-10-26T12:11:00;17.00;99.90
44627;DHT22;30333;52.192;8.834;2022-10-26T12:13:33;17.00;99.90
44627;DHT22;30333;52.192;8.834;2022-10-26T12:16:08;17.10;99.90
44627;DHT22;30333;52.192;8.834;2022-10-26T12:18:42;17.10;99.90
44627;DHT22;30333;52.192;8.834;2022-10-26T12:21:27;20.10;99.90
44627;DHT22;30333;52.192;8.834;2022-10-26T12:23:56;17.20;99.90
44627;DHT22;30333;52.192;8.834;2022-10-26T12:26:49;17.10;99.90
44627;DHT22;30333;52.192;8.834;2022-10-26T12:29:38;17.10;99.90
44627;DHT22;30333;52.192;8.834;2022-10-26T12:35:49;17.10;99.90
44627;DHT22;30333;52.192;8.834;2022-10-26T12:38:55;17.20;99.90
44627;DHT22;30333;52.192;8.834;2022-10-26T12:41:24;17.20;99.90
44627;DHT22;30333;52.192;8.834;2022-10-26T12:44:00;17.20;99.90
44627;DHT22;30333;52.192;8.834;2022-10-26T12:46:38;17.20;99.90
44627;DHT22;30333;52.192;8.834;2022-10-26T12:52:26;17.30;99.90
44627;DHT22;30333;52.192;8.834;2022-10-26T12:55:17;17.30;99.90
44627;DHT22;30333;52.192;8.834;2022-10-26T12:57:52;17.30;99.90
44627;DHT22;30333;52.192;8.834;2022-10-26T13:00:22;17.40;99.90
44627;DHT22;30333;52.192;8.834;2022-10-26T13:03:01;17.40;99.90
44627;DHT22;30333;52.192;8.834;2022-10-26T13:05:45;17.30;99.90
44627;DHT22;30333;52.192;8.834;2022-10-26T13:08:15;17.30;99.90
44627;DHT22;30333;52.192;8.834;2022-10-26T13:10:58;17.40;99.90
44627;DHT22;30333;52.192;8.834;2022-10-26T13:13:28;17.50;99.90
44627;DHT22;30333;52.192;8.834;2022-10-26T13:15:59;17.40;99.90
44627;DHT22;30333;52.192;8.834;2022-10-26T13:18:26;17.40;99.90
44627;DHT22;30333;52.192;8.834;2022-10-26T13:21:01;17.40;99.90
44627;DHT22;30333;52.192;8.834;2022-10-26T13:23:33;17.40;99.90
44627;DHT22;30333;52.192;8.834;2022-10-26T13:26:03;17.40;99.90
44627;DHT22;30333;52.192;8.834;2022-10-26T13:28:41;17.40;99.90
44627;DHT22;30333;52.192;8.834;2022-10-26T13:31:11;17.50;99.90
44627;DHT22;30333;52.192;8.834;2022-10-26T13:33:41;17.40;99.90
44627;DHT22;30333;52.192;8.834;2022-10-26T13:36:17;17.40;99.90
44627;DHT22;30333;52.192;8.834;2022-10-26T13:38:50;17.40;99.90
44627;DHT22;30333;52.192;8.834;2022-10-26T13:41:31;17.40;99.90
44627;DHT22;30333;52.192;8.834;2022-10-26T13:44:02;17.60;99.90
44627;DHT22;30333;52.192;8.834;2022-10-26T13:46:34;17.80;99.90
44627;DHT22;30333;52.192;8.834;2022-10-26T13:49:06;17.70;99.90
44627;DHT22;30333;52.192;8.834;2022-10-26T13:51:39;17.60;99.90
44627;DHT22;30333;52.192;8.834;2022-10-26T13:54:18;17.60;99.90
44627;DHT22;30333;52.192;8.834;2022-10-26T13:56:56;17.80;99.90
44627;DHT22;30333;52.192;8.834;2022-10-26T13:59:25;17.70;99.90
44627;DHT22;30333;52.192;8.834;2022-10-26T14:02:14;17.80;99.90
44627;DHT22;30333;52.192;8.834;2022-10-26T14:04:45;17.90;99.90
44627;DHT22;30333;52.192;8.834;2022-10-26T14:07:16;17.80;99.90
44627;DHT22;30333;52.192;8.834;2022-10-26T14:09:53;17.80;99.90
44627;DHT22;30333;52.192;8.834;2022-10-26T14:12:29;17.80;99.90
44627;DHT22;30333;52.192;8.834;2022-10-26T14:15:01;17.70;99.90
44627;DHT22;30333;52.192;8.834;2022-10-26T14:17:29;17.70;99.90
44627;DHT22;30333;52.192;8.834;2022-10-26T14:19:56;17.70;99.90
44627;DHT22;30333;52.192;8.834;2022-10-26T14:22:24;17.60;99.90
44627;DHT22;30333;52.192;8.834;2022-10-26T14:24:56;17.70;99.90
44627;DHT22;30333;52.192;8.834;2022-10-26T14:27:24;17.70;99.90
44627;DHT22;30333;52.192;8.834;2022-10-26T14:29:53;17.70;99.90
44627;DHT22;30333;52.192;8.834;2022-10-26T14:32:40;17.70;99.90
44627;DHT22;30333;52.192;8.834;2022-10-26T14:35:11;16.40;99.90
44627;DHT22;30333;52.192;8.834;2022-10-26T14:37:42;17.70;99.90
44627;DHT22;30333;52.192;8.834;2022-10-26T14:40:15;17.70;99.90
44627;DHT22;30333;52.192;8.834;2022-10-26T14:42:44;17.80;99.90
44627;DHT22;30333;52.192;8.834;2022-10-26T14:45:28;17.60;99.90
44627;DHT22;30333;52.192;8.834;2022-10-26T14:48:23;17.50;99.90
44627;DHT22;30333;52.192;8.834;2022-10-26T14:51:04;17.60;99.90
44627;DHT22;30333;52.192;8.834;2022-10-26T14:53:35;17.60;99.90
44627;DHT22;30333;52.192;8.834;2022-10-26T14:56:15;17.80;99.90
44627;DHT22;30333;52.192;8.834;2022-10-26T14:58:43;17.60;99.90
44627;DHT22;30333;52.192;8.834;2022-10-26T15:01:14;17.60;99.90
44627;DHT22;30333;52.192;8.834;2022-10-26T15:03:43;17.70;99.90
44627;DHT22;30333;52.192;8.834;2022-10-26T15:06:34;17.60;99.90
44627;DHT22;30333;52.192;8.834;2022-10-26T15:09:04;17.60;99.90
44627;DHT22;30333;52.192;8.834;2022-10-26T15:11:34;17.60;99.90
44627;DHT22;30333;52.192;8.834;2022-10-26T15:14:01;17.60;99.90
44627;DHT22;30333;52.192;8.834;2022-10-26T15:16:30;17.60;99.90
44627;DHT22;30333;52.192;8.834;2022-10-26T15:19:05;17.60;99.90
44627;DHT22;30333;52.192;8.834;2022-10-26T15:21:34;17.50;99.90
44627;DHT22;30333;52.192;8.834;2022-10-26T15:24:22;17.50;99.90
44627;DHT22;30333;52.192;8.834;2022-10-26T15:26:52;18.00;99.90
44627;DHT22;30333;52.192;8.834;2022-10-26T15:29:40;18.70;99.90
44627;DHT22;30333;52.192;8.834;2022-10-26T15:32:26;18.80;99.90
44627;DHT22;30333;52.192;8.834;2022-10-26T15:35:14;17.30;99.90
44627;DHT22;30333;52.192;8.834;2022-10-26T15:37:41;17.30;99.90
44627;DHT22;30333;52.192;8.834;2022-10-26T15:40:08;17.60;99.90
44627;DHT22;30333;52.192;8.834;2022-10-26T15:42:39;17.20;99.90
44627;DHT22;30333;52.192;8.834;2022-10-26T15:45:14;17.10;99.90
44627;DHT22;30333;52.192;8.834;2022-10-26T15:47:42;17.10;99.90
44627;DHT22;30333;52.192;8.834;2022-10-26T15:50:11;17.00;99.90
44627;DHT22;30333;52.192;8.834;2022-10-26T15:52:38;17.20;99.90
44627;DHT22;30333;52.192;8.834;2022-10-26T15:57:33;16.90;99.90
44627;DHT22;30333;52.192;8.834;2022-10-26T16:00:03;16.90;99.90
44627;DHT22;30333;52.192;8.834;2022-10-26T16:02:31;16.80;99.90
44627;DHT22;30333;52.192;8.834;2022-10-26T16:04:58;16.80;99.90
44627;DHT22;30333;52.192;8.834;2022-10-26T16:07:26;16.80;99.90
44627;DHT22;30333;52.192;8.834;2022-10-26T16:09:53;16.70;99.90
44627;DHT22;30333;52.192;8.834;2022-10-26T16:17:32;16.60;99.90
44627;DHT22;30333;52.192;8.834;2022-10-26T16:22:34;16.50;99.90
44627;DHT22;30333;52.192;8.834;2022-10-26T16:25:05;16.40;99.90
44627;DHT22;30333;52.192;8.834;2022-10-26T16:27:32;16.40;99.90
44627;DHT22;30333;52.192;8.834;2022-10-26T16:34:54;16.20;99.90
44627;DHT22;30333;52.192;8.834;2022-10-26T16:37:21;16.20;99.90
44627;DHT22;30333;52.192;8.834;2022-10-26T16:39:48;16.20;99.90
44627;DHT22;30333;52.192;8.834;2022-10-26T16:42:14;16.10;99.90
44627;DHT22;30333;52.192;8.834;2022-10-26T16:47:08;16.00;99.90
44627;DHT22;30333;52.192;8.834;2022-10-26T16:49:35;16.00;99.90
44627;DHT22;30333;52.192;8.834;2022-10-26T16:52:05;15.90;99.90
44627;DHT22;30333;52.192;8.834;2022-10-26T17:01:54;15.80;99.90
44627;DHT22;30333;52.192;8.834;2022-10-26T17:06:48;15.70;99.90
44627;DHT22;30333;52.192;8.834;2022-10-26T17:09:17;15.70;99.90
44627;DHT22;30333;52.192;8.834;2022-10-26T17:14:11;15.60;99.90
44627;DHT22;30333;52.192;8.834;2022-10-26T17:19:05;15.50;99.90
44627;DHT22;30333;52.192;8.834;2022-10-26T17:21:33;15.40;99.90
44627;DHT22;30333;52.192;8.834;2022-10-26T17:24:01;15.40;99.90
44627;DHT22;30333;52.192;8.834;2022-10-26T17:26:29;16.20;99.90
44627;DHT22;30333;52.192;8.834;2022-10-26T17:28:56;15.30;99.90
44627;DHT22;30333;52.192;8.834;2022-10-26T17:31:24;15.20;99.90
44627;DHT22;30333;52.192;8.834;2022-10-26T17:33:51;17.10;99.90
44627;DHT22;30333;52.192;8.834;2022-10-26T17:36:20;15.20;99.90
44627;DHT22;30333;52.192;8.834;2022-10-26T17:38:48;15.30;99.90
44627;DHT22;30333;52.192;8.834;2022-10-26T17:41:17;15.10;99.90
44627;DHT22;30333;52.192;8.834;2022-10-26T17:43:47;15.10;99.90
44627;DHT22;30333;52.192;8.834;2022-10-26T17:46:16;15.10;99.90
44627;DHT22;30333;52.192;8.834;2022-10-26T17:48:43;15.10;99.90
44627;DHT22;30333;52.192;8.834;2022-10-26T17:51:12;15.10;99.90
44627;DHT22;30333;52.192;8.834;2022-10-26T17:56:09;15.10;99.90
44627;DHT22;30333;52.192;8.834;2022-10-26T17:58:37;15.30;99.90
44627;DHT22;30333;52.192;8.834;2022-10-26T18:01:07;15.20;99.90
44627;DHT22;30333;52.192;8.834;2022-10-26T18:03:34;15.00;99.90
44627;DHT22;30333;52.192;8.834;2022-10-26T18:06:02;15.00;99.90
44627;DHT22;30333;52.192;8.834;2022-10-26T18:08:30;15.00;99.90
44627;DHT22;30333;52.192;8.834;2022-10-26T18:13:26;15.00;99.90
44627;DHT22;30333;52.192;8.834;2022-10-26T18:18:23;14.90;99.90
44627;DHT22;30333;52.192;8.834;2022-10-26T18:20:50;14.90;99.90
44627;DHT22;30333;52.192;8.834;2022-10-26T18:23:17;14.90;99.90
44627;DHT22;30333;52.192;8.834;2022-10-26T18:25:44;14.90;99.90
44627;DHT22;30333;52.192;8.834;2022-10-26T18:28:11;14.80;99.90
44627;DHT22;30333;52.192;8.834;2022-10-26T18:30:42;14.80;99.90
44627;DHT22;30333;52.192;8.834;2022-10-26T18:33:09;15.80;99.90
44627;DHT22;30333;52.192;8.834;2022-10-26T18:35:38;14.80;99.90
44627;DHT22;30333;52.192;8.834;2022-10-26T18:38:04;14.80;99.90
44627;DHT22;30333;52.192;8.834;2022-10-26T18:40:31;14.80;99.90
44627;DHT22;30333;52.192;8.834;2022-10-26T18:42:58;14.70;99.90
44627;DHT22;30333;52.192;8.834;2022-10-26T18:45:25;14.70;99.90
44627;DHT22;30333;52.192;8.834;2022-10-26T18:47:52;14.70;99.90
44627;DHT22;30333;52.192;8.834;2022-10-26T18:50:19;14.70;99.90
44627;DHT22;30333;52.192;8.834;2022-10-26T18:52:47;15.10;99.90
44627;DHT22;30333;52.192;8.834;2022-10-26T18:55:14;14.70;99.90
44627;DHT22;30333;52.192;8.834;2022-10-26T18:57:41;14.70;99.90
44627;DHT22;30333;52.192;8.834;2022-10-26T19:00:09;14.60;99.90
44627;DHT22;30333;52.192;8.834;2022-10-26T19:02:36;14.60;99.90
44627;DHT22;30333;52.192;8.834;2022-10-26T19:05:03;14.70;99.90
44627;DHT22;30333;52.192;8.834;2022-10-26T19:07:30;14.70;99.90
44627;DHT22;30333;52.192;8.834;2022-10-26T19:09:58;14.60;99.90
44627;DHT22;30333;52.192;8.834;2022-10-26T19:12:25;14.60;99.90
44627;DHT22;30333;52.192;8.834;2022-10-26T19:14:52;14.60;99.90
44627;DHT22;30333;52.192;8.834;2022-10-26T19:17:19;14.60;99.90
44627;DHT22;30333;52.192;8.834;2022-10-26T19:19:47;14.80;99.90
44627;DHT22;30333;52.192;8.834;2022-10-26T19:22:14;14.60;99.90
44627;DHT22;30333;52.192;8.834;2022-10-26T19:24:41;14.60;99.90
44627;DHT22;30333;52.192;8.834;2022-10-26T19:27:11;14.60;99.90
44627;DHT22;30333;52.192;8.834;2022-10-26T19:29:39;14.60;99.90
44627;DHT22;30333;52.192;8.834;2022-10-26T19:32:06;14.50;99.90
44627;DHT22;30333;52.192;8.834;2022-10-26T19:34:33;14.60;99.90
44627;DHT22;30333;52.192;8.834;2022-10-26T19:37:00;14.60;99.90
44627;DHT22;30333;52.192;8.834;2022-10-26T19:39:27;14.50;99.90
44627;DHT22;30333;52.192;8.834;2022-10-26T19:41:54;14.50;99.90
44627;DHT22;30333;52.192;8.834;2022-10-26T19:44:22;14.50;99.90
44627;DHT22;30333;52.192;8.834;2022-10-26T19:46:51;14.50;99.90
44627;DHT22;30333;52.192;8.834;2022-10-26T19:49:18;14.50;99.90
44627;DHT22;30333;52.192;8.834;2022-10-26T19:51:45;14.50;99.90
44627;DHT22;30333;52.192;8.834;2022-10-26T19:54:13;14.50;99.90
44627;DHT22;30333;52.192;8.834;2022-10-26T19:56:40;14.50;99.90